Time;durP1;ratioP1;P1;durP2;ratioP2;P2;SDS_P1;SDS_P2;PMS_P1;PMS_P2;Temp;Humidity;BMP_temperature;BMP_pressure;BME280_temperature;BME280_humidity;BME280_pressure;Samples;Min_cycle;Max_cycle;Signal;HPM_P1;HPM_P2
2023/08/21 00:01:49;;;;;;;;;1.00;1.00;;;;;25.39;100.00;102022.22;5073610;28;63589;-72
2023/08/21 00:04:14;;;;;;;;;1.00;1.00;;;;;25.42;100.00;102032.97;5073498;28;48511;-72
2023/08/21 00:06:40;;;;;;;;;0.00;0.00;;;;;25.47;100.00;102027.41;5073863;28;46288;-72
2023/08/21 00:09:05;;;;;;;;;1.67;1.00;;;;;25.56;100.00;102025.25;5075938;28;68194;-72
2023/08/21 00:11:30;;;;;;;;;2.00;2.00;;;;;25.56;100.00;102029.78;5071623;28;61041;-74
2023/08/21 00:13:56;;;;;;;;;1.00;0.67;;;;;25.44;100.00;102028.38;5074115;28;47634;-73
2023/08/21 00:16:21;;;;;;;;;1.00;1.00;;;;;25.34;100.00;102011.56;5077082;28;45548;-72
2023/08/21 00:18:47;;;;;;;;;1.00;1.00;;;;;25.50;100.00;102017.34;5072997;28;46756;-75
2023/08/21 00:21:12;;;;;;;;;2.00;1.00;;;;;25.55;100.00;102014.50;5077218;28;45433;-73
2023/08/21 00:23:38;;;;;;;;;1.00;1.00;;;;;25.53;100.00;102011.88;5073055;28;45269;-73
2023/08/21 00:26:03;;;;;;;;;3.67;2.00;;;;;25.52;100.00;102014.63;5059410;28;45450;-72
2023/08/21 00:28:32;;;;;;;;;1.00;1.00;;;;;25.38;100.00;102015.06;5072178;28;61545;-74
2023/08/21 00:31:00;;;;;;;;;2.67;1.00;;;;;25.37;100.00;102007.88;5074250;28;45409;-73
2023/08/21 00:33:26;;;;;;;;;1.00;1.00;;;;;25.32;100.00;102015.25;5076448;28;45416;-73
2023/08/21 00:35:51;;;;;;;;;1.00;1.00;;;;;25.41;100.00;102009.56;5065137;27;70222;-73
2023/08/21 00:38:17;;;;;;;;;1.00;1.00;;;;;25.38;100.00;102011.47;5071250;28;67269;-73
2023/08/21 00:40:42;;;;;;;;;1.00;1.00;;;;;25.30;100.00;102011.69;5070895;28;45336;-73
2023/08/21 00:43:08;;;;;;;;;4.00;1.00;;;;;25.23;100.00;102015.53;5072148;28;61475;-74
2023/08/21 00:45:33;;;;;;;;;1.67;1.67;;;;;25.18;100.00;102015.69;5070595;28;68277;-72
2023/08/21 00:47:59;;;;;;;;;1.00;1.00;;;;;25.13;100.00;102011.34;5056217;28;62612;-72
2023/08/21 00:50:24;;;;;;;;;1.67;1.00;;;;;25.12;100.00;102004.19;5071266;28;66093;-72
2023/08/21 00:52:50;;;;;;;;;1.00;1.00;;;;;25.11;100.00;102005.13;5058964;28;60452;-74
2023/08/21 00:55:15;;;;;;;;;1.00;1.00;;;;;25.07;100.00;102004.31;5072583;28;69845;-72
2023/08/21 00:57:40;;;;;;;;;1.67;1.67;;;;;25.10;100.00;102012.34;5073129;28;62018;-74
2023/08/21 01:00:10;;;;;;;;;0.00;0.00;;;;;25.08;100.00;102001.56;5058439;28;62495;-72
2023/08/21 01:02:35;;;;;;;;;0.67;0.67;;;;;25.06;100.00;102006.13;5056989;28;45517;-72
2023/08/21 01:05:00;;;;;;;;;1.67;1.67;;;;;25.03;100.00;102010.69;5067260;28;45470;-72
2023/08/21 01:07:26;;;;;;;;;2.00;1.00;;;;;25.02;100.00;102011.63;5075794;28;69518;-72
2023/08/21 01:10:11;;;;;;;;;0.67;0.67;;;;;25.01;100.00;102013.47;5071982;28;45274;-75
2023/08/21 01:12:47;;;;;;;;;1.00;1.00;;;;;24.99;100.00;102012.63;5055470;28;45459;-73
2023/08/21 01:15:13;;;;;;;;;3.00;1.00;;;;;24.94;100.00;102008.31;5075522;28;46411;-74
2023/08/21 01:17:40;;;;;;;;;1.00;1.00;;;;;24.91;100.00;102024.59;5057030;28;68611;-74
2023/08/21 01:20:09;;;;;;;;;1.00;1.00;;;;;24.85;100.00;102020.25;5072292;28;64975;-72
2023/08/21 01:22:45;;;;;;;;;0.00;0.00;;;;;24.75;100.00;102007.94;5071677;28;45545;-75
2023/08/21 01:25:11;;;;;;;;;1.00;1.00;;;;;24.74;100.00;102028.69;5073389;28;46769;-72
2023/08/21 01:27:37;;;;;;;;;1.67;1.00;;;;;24.78;100.00;102021.38;5071006;28;45474;-72
2023/08/21 01:30:03;;;;;;;;;6.67;1.00;;;;;24.85;100.00;102022.06;5055973;28;45366;-74
2023/08/21 01:32:42;;;;;;;;;4.00;1.00;;;;;24.84;100.00;102021.19;5071858;28;45284;-73
2023/08/21 01:35:09;;;;;;;;;2.00;0.67;;;;;24.81;100.00;102024.84;5074136;28;45134;-72
2023/08/21 01:37:35;;;;;;;;;1.00;1.00;;;;;24.72;100.00;102022.44;5053637;28;45324;-72
2023/08/21 01:40:01;;;;;;;;;2.00;1.00;;;;;24.80;100.00;102014.97;5056565;28;62530;-74
2023/08/21 01:42:26;;;;;;;;;1.00;1.00;;;;;24.80;100.00;102016.81;5072226;28;62634;-73
2023/08/21 01:44:51;;;;;;;;;2.00;2.00;;;;;24.78;100.00;102022.25;5076511;28;46424;-72
2023/08/21 01:47:17;;;;;;;;;1.00;1.00;;;;;24.71;100.00;102022.47;5071051;28;69266;-73
2023/08/21 01:49:42;;;;;;;;;0.00;0.00;;;;;24.69;100.00;102025.22;5070069;28;45283;-72
2023/08/21 01:52:07;;;;;;;;;2.00;1.00;;;;;24.68;100.00;102022.56;5072403;28;57586;-74
2023/08/21 01:54:33;;;;;;;;;2.00;1.00;;;;;24.69;100.00;102029.75;5067397;28;69211;-75
2023/08/21 01:56:58;;;;;;;;;0.00;0.00;;;;;24.63;100.00;102024.53;5075187;28;45454;-72
2023/08/21 01:59:24;;;;;;;;;1.00;1.00;;;;;24.64;100.00;102024.47;5072763;28;61996;-73
2023/08/21 02:01:49;;;;;;;;;3.00;0.67;;;;;24.51;100.00;102026.63;5053262;28;45483;-72
2023/08/21 02:04:15;;;;;;;;;3.00;2.00;;;;;24.52;100.00;102025.72;5068618;28;45435;-72
2023/08/21 02:06:40;;;;;;;;;0.00;0.00;;;;;24.48;100.00;102020.44;5074679;28;57795;-72
2023/08/21 02:09:06;;;;;;;;;2.00;1.00;;;;;24.44;100.00;102016.91;5072584;28;45311;-73
2023/08/21 02:11:32;;;;;;;;;1.00;1.00;;;;;24.48;100.00;102017.72;5074515;28;63344;-73
2023/08/21 02:13:57;;;;;;;;;1.67;0.67;;;;;24.47;100.00;102019.56;5074651;28;46491;-73
2023/08/21 02:16:22;;;;;;;;;3.00;1.00;;;;;24.46;100.00;102016.91;5075058;28;59996;-73
2023/08/21 02:18:48;;;;;;;;;2.00;1.00;;;;;24.37;100.00;102009.03;5071337;28;45504;-73
2023/08/21 02:21:13;;;;;;;;;1.00;1.00;;;;;24.41;100.00;102019.72;5073340;28;57394;-73
2023/08/21 02:23:38;;;;;;;;;2.00;1.00;;;;;24.39;100.00;102017.97;5069838;28;64508;-72
2023/08/21 02:26:04;;;;;;;;;5.00;1.00;;;;;24.38;100.00;102011.69;5065882;28;67894;-72
2023/08/21 02:28:29;;;;;;;;;3.67;2.00;;;;;24.36;100.00;102013.56;5070712;28;45934;-73
2023/08/21 02:30:54;;;;;;;;;3.00;1.67;;;;;24.33;100.00;102020.81;5075881;28;56220;-74
2023/08/21 02:33:20;;;;;;;;;0.00;0.00;;;;;24.31;100.00;102021.75;5067489;28;71208;-72
2023/08/21 02:35:45;;;;;;;;;2.33;1.00;;;;;24.27;100.00;102021.88;5069943;28;63837;-74
2023/08/21 02:38:10;;;;;;;;;1.33;1.33;;;;;24.25;100.00;102021.91;5068967;27;57948;-72
2023/08/21 02:40:36;;;;;;;;;2.00;1.00;;;;;24.23;100.00;102015.66;5066724;28;61121;-75
2023/08/21 02:43:01;;;;;;;;;1.00;1.00;;;;;24.25;100.00;102021.03;5067616;28;70048;-72
2023/08/21 02:45:27;;;;;;;;;1.33;1.33;;;;;24.22;100.00;102026.50;5072781;28;45399;-72
2023/08/21 02:47:52;;;;;;;;;1.00;1.00;;;;;24.18;100.00;102027.50;5072126;28;64466;-75
2023/08/21 02:50:17;;;;;;;;;0.67;0.67;;;;;24.17;100.00;102023.03;5074025;28;61940;-75
2023/08/21 02:52:43;;;;;;;;;3.00;0.33;;;;;24.24;100.00;102021.97;5073363;28;65138;-74
2023/08/21 02:55:08;;;;;;;;;1.00;1.00;;;;;24.14;100.00;102023.13;5073803;28;67335;-73
2023/08/21 02:57:34;;;;;;;;;3.00;1.00;;;;;24.08;100.00;102023.31;5068687;28;45427;-72
2023/08/21 02:59:59;;;;;;;;;1.00;1.00;;;;;23.94;100.00;102027.22;5074838;28;45482;-73
2023/08/21 03:02:25;;;;;;;;;3.33;1.00;;;;;23.91;100.00;102021.91;5072935;28;66892;-72
2023/08/21 03:04:51;;;;;;;;;2.00;0.00;;;;;24.05;100.00;102017.03;5067959;28;45384;-72
2023/08/21 03:07:18;;;;;;;;;1.00;1.00;;;;;24.10;100.00;102024.13;5054749;28;45490;-72
2023/08/21 03:09:45;;;;;;;;;3.67;1.33;;;;;24.07;100.00;102024.22;5068005;28;45531;-73
2023/08/21 03:12:11;;;;;;;;;1.00;1.00;;;;;23.93;100.00;102017.38;5071137;28;46448;-74
2023/08/21 03:14:36;;;;;;;;;1.00;1.00;;;;;23.95;100.00;102017.31;5071008;28;45334;-73
2023/08/21 03:17:01;;;;;;;;;4.00;1.00;;;;;23.88;100.00;102026.50;5073953;28;60235;-72
2023/08/21 03:19:27;;;;;;;;;1.00;0.33;;;;;23.88;100.00;102021.13;5053148;28;61237;-73
2023/08/21 03:21:52;;;;;;;;;2.67;1.00;;;;;23.75;100.00;102023.22;5055352;28;46451;-74
2023/08/21 03:24:17;;;;;;;;;3.67;1.67;;;;;23.71;100.00;102013.44;5073908;28;46135;-73
2023/08/21 03:26:43;;;;;;;;;5.00;2.00;;;;;23.79;100.00;102023.09;5075538;28;45320;-72
2023/08/21 03:29:08;;;;;;;;;1.33;1.33;;;;;23.78;100.00;102017.75;5076311;28;45350;-73
2023/08/21 03:31:33;;;;;;;;;4.00;1.00;;;;;23.84;100.00;102027.50;5074830;28;69288;-73
2023/08/21 03:33:59;;;;;;;;;3.00;2.00;;;;;23.83;100.00;102029.31;5077577;28;66988;-72
2023/08/21 03:36:33;;;;;;;;;0.67;0.67;;;;;23.81;100.00;102030.25;5077795;28;45633;-75
2023/08/21 03:38:59;;;;;;;;;4.00;3.00;;;;;23.80;100.00;102018.59;5075883;28;45290;-72
2023/08/21 03:41:25;;;;;;;;;4.33;1.33;;;;;23.80;100.00;102026.69;5072069;28;46497;-75
2023/08/21 03:43:50;;;;;;;;;1.33;1.00;;;;;23.74;100.00;102032.25;5071586;28;69503;-73
2023/08/21 03:46:15;;;;;;;;;1.67;1.67;;;;;23.70;100.00;102035.94;5075414;28;45391;-73
2023/08/21 03:48:41;;;;;;;;;6.00;2.67;;;;;23.76;100.00;102035.81;5071609;28;59276;-72
2023/08/21 03:51:06;;;;;;;;;1.67;1.67;;;;;23.64;100.00;102036.06;5074966;28;63955;-74
2023/08/21 03:53:31;;;;;;;;;8.00;3.33;;;;;23.59;100.00;102032.56;5075145;28;69437;-72
2023/08/21 03:55:57;;;;;;;;;1.67;1.00;;;;;23.57;100.00;102026.34;5076039;28;45707;-73
2023/08/21 03:58:22;;;;;;;;;2.33;2.00;;;;;23.66;100.00;102029.75;5077999;28;62973;-73
2023/08/21 04:00:47;;;;;;;;;0.00;0.00;;;;;23.59;100.00;102035.28;5068741;28;46391;-75
2023/08/21 04:03:13;;;;;;;;;5.33;3.67;;;;;23.46;100.00;102030.19;5069674;28;45290;-72
2023/08/21 04:05:38;;;;;;;;;5.00;2.00;;;;;23.44;100.00;102029.34;5070662;28;45396;-75
2023/08/21 04:08:04;;;;;;;;;2.33;2.33;;;;;23.38;100.00;102029.44;5076944;28;45519;-74
2023/08/21 04:10:29;;;;;;;;;5.33;1.00;;;;;23.36;100.00;102036.69;5071662;28;47189;-72
2023/08/21 04:12:54;;;;;;;;;2.00;2.00;;;;;23.29;100.00;102039.59;5074498;27;45282;-72
2023/08/21 04:15:20;;;;;;;;;4.33;1.00;;;;;23.26;100.00;102033.31;5075802;28;45436;-74
2023/08/21 04:17:45;;;;;;;;;3.67;1.00;;;;;23.23;100.00;102035.22;5076255;28;60466;-72
2023/08/21 04:20:11;;;;;;;;;3.00;2.00;;;;;23.22;100.00;102033.41;5077060;28;68597;-72
2023/08/21 04:22:36;;;;;;;;;2.00;2.00;;;;;23.19;100.00;102039.78;5076879;28;45309;-73
2023/08/21 04:25:01;;;;;;;;;6.00;1.00;;;;;23.15;100.00;102053.34;5073150;28;60621;-72
2023/08/21 04:27:26;;;;;;;;;1.67;1.67;;;;;23.09;100.00;102043.59;5069298;28;45500;-75
2023/08/21 04:29:53;;;;;;;;;4.33;2.00;;;;;23.08;100.00;102044.53;5068867;28;72194;-72
2023/08/21 04:32:18;;;;;;;;;2.00;2.00;;;;;23.03;100.00;102050.94;5069182;27;45427;-73
2023/08/21 04:34:43;;;;;;;;;2.00;2.00;;;;;23.05;100.00;102051.78;5070975;28;65925;-72
2023/08/21 04:37:09;;;;;;;;;4.67;2.00;;;;;22.99;100.00;102050.09;5073656;28;51001;-75
2023/08/21 04:39:36;;;;;;;;;3.67;2.67;;;;;22.97;100.00;102051.94;5074095;28;68722;-72
2023/08/21 04:42:01;;;;;;;;;3.00;2.00;;;;;22.94;100.00;102058.28;5073233;28;45197;-74
2023/08/21 04:44:27;;;;;;;;;8.00;2.33;;;;;22.91;100.00;102054.78;5059647;28;45248;-74
2023/08/21 04:46:52;;;;;;;;;3.00;3.00;;;;;22.88;100.00;102063.78;5058651;28;47590;-72
2023/08/21 04:49:17;;;;;;;;;3.00;2.33;;;;;22.86;100.00;102057.53;5070153;28;67850;-72
2023/08/21 04:51:43;;;;;;;;;6.00;2.00;;;;;22.84;100.00;102070.13;5076749;28;67157;-75
2023/08/21 04:54:08;;;;;;;;;5.00;3.67;;;;;22.80;100.00;102070.22;5069093;28;64586;-74
2023/08/21 04:56:33;;;;;;;;;2.00;2.00;;;;;22.77;100.00;102065.78;5068783;28;46206;-74
2023/08/21 04:58:59;;;;;;;;;4.00;2.67;;;;;22.76;100.00;102072.09;5071623;28;69402;-74
2023/08/21 05:01:24;;;;;;;;;4.33;3.00;;;;;22.73;100.00;102070.34;5067385;28;65664;-73
2023/08/21 05:03:50;;;;;;;;;5.00;2.00;;;;;22.74;100.00;102074.81;5074663;28;45183;-75
2023/08/21 05:06:16;;;;;;;;;2.33;2.33;;;;;22.73;100.00;102082.91;5075789;28;45565;-72
2023/08/21 05:08:41;;;;;;;;;2.00;2.00;;;;;22.69;100.00;102067.72;5074222;28;70147;-73
2023/08/21 05:11:06;;;;;;;;;2.67;2.33;;;;;22.69;100.00;102076.72;5070991;28;63435;-72
2023/08/21 05:13:32;;;;;;;;;4.67;1.33;;;;;22.65;100.00;102076.81;5070695;28;45286;-73
2023/08/21 05:15:58;;;;;;;;;4.33;3.00;;;;;22.62;100.00;102083.13;5073117;28;59678;-72
2023/08/21 05:18:24;;;;;;;;;7.00;2.00;;;;;22.62;100.00;102076.84;5070725;28;47045;-73
2023/08/21 05:20:49;;;;;;;;;1.00;1.00;;;;;22.59;100.00;102076.94;5076617;28;45420;-73
2023/08/21 05:23:15;;;;;;;;;3.00;1.67;;;;;22.58;100.00;102080.50;5069593;28;45447;-74
2023/08/21 05:25:41;;;;;;;;;4.00;2.00;;;;;22.58;100.00;102078.69;5059477;28;45359;-72
2023/08/21 05:28:07;;;;;;;;;3.00;2.00;;;;;22.57;100.00;102081.44;5071514;28;45769;-73
2023/08/21 05:30:32;;;;;;;;;5.33;3.00;;;;;22.54;100.00;102092.28;5068833;28;45210;-72
2023/08/21 05:32:58;;;;;;;;;3.00;2.00;;;;;22.55;100.00;102088.66;5071330;28;64489;-74
2023/08/21 05:35:23;;;;;;;;;3.33;2.00;;;;;22.55;100.00;102100.31;5066484;28;53198;-71
2023/08/21 05:37:48;;;;;;;;;3.00;2.00;;;;;22.54;100.00;102094.97;5072486;28;55658;-72
2023/08/21 05:40:14;;;;;;;;;3.33;1.33;;;;;22.54;100.00;102089.59;5065993;28;65744;-72
2023/08/21 05:42:39;;;;;;;;;3.67;2.00;;;;;22.54;100.00;102097.66;5071109;28;45757;-72
2023/08/21 05:45:05;;;;;;;;;3.33;3.00;;;;;22.56;100.00;102096.69;5076511;28;45495;-75
2023/08/21 05:47:31;;;;;;;;;2.67;2.00;;;;;22.56;100.00;102095.81;5056446;28;46011;-70
2023/08/21 05:49:56;;;;;;;;;3.00;2.00;;;;;22.56;100.00;102085.94;5069597;28;65339;-72
2023/08/21 05:52:22;;;;;;;;;4.33;1.67;;;;;22.56;100.00;102093.13;5065095;28;55761;-72
2023/08/21 05:54:48;;;;;;;;;2.33;1.67;;;;;22.57;100.00;102092.19;5076614;28;45485;-73
2023/08/21 05:57:13;;;;;;;;;1.00;1.00;;;;;22.57;100.00;102095.78;5057152;28;46417;-73
2023/08/21 05:59:44;;;;;;;;;5.67;3.00;;;;;22.55;100.00;102100.31;5073729;28;68542;-73
2023/08/21 06:02:10;;;;;;;;;2.00;1.00;;;;;22.53;100.00;102095.84;5072171;28;45738;-72
2023/08/21 06:04:35;;;;;;;;;5.00;2.00;;;;;22.57;100.00;102101.16;5077050;28;45279;-71
2023/08/21 06:07:00;;;;;;;;;2.00;2.00;;;;;22.53;100.00;102102.16;5074796;28;73502;-74
2023/08/21 06:09:26;;;;;;;;;3.00;1.67;;;;;22.59;100.00;102106.53;5073740;28;67993;-72
2023/08/21 06:11:51;;;;;;;;;1.33;1.33;;;;;22.63;100.00;102109.13;5073250;28;61861;-73
2023/08/21 06:14:16;;;;;;;;;5.00;2.33;;;;;22.65;100.00;102106.41;5073017;28;46038;-72
2023/08/21 06:16:43;;;;;;;;;6.00;2.00;;;;;22.69;100.00;102100.03;5070899;28;68533;-70
2023/08/21 06:19:09;;;;;;;;;3.00;1.00;;;;;22.77;100.00;102113.38;5075940;28;45338;-70
2023/08/21 06:21:34;;;;;;;;;2.00;2.00;;;;;22.78;100.00;102109.75;5075062;28;45327;-72
2023/08/21 06:23:59;;;;;;;;;2.00;2.00;;;;;22.78;100.00;102104.38;5075402;28;60404;-71
2023/08/21 06:26:25;;;;;;;;;2.00;2.00;;;;;22.80;100.00;102105.22;5074242;28;46592;-70
2023/08/21 06:28:51;;;;;;;;;2.33;1.00;;;;;22.84;100.00;102118.59;5073087;28;45351;-71
2023/08/21 06:31:16;;;;;;;;;5.00;2.33;;;;;22.83;100.00;102110.56;5071899;27;45603;-71
2023/08/21 06:33:42;;;;;;;;;4.00;1.00;;;;;22.78;100.00;102109.75;5072987;28;45462;-72
2023/08/21 06:36:07;;;;;;;;;2.00;2.00;;;;;22.71;100.00;102104.50;5073298;28;68536;-70
2023/08/21 06:38:32;;;;;;;;;1.67;1.67;;;;;22.69;100.00;102103.66;5073504;28;68282;-71
2023/08/21 06:40:58;;;;;;;;;2.00;2.00;;;;;22.67;100.00;102104.56;5068680;28;64167;-72
2023/08/21 06:43:23;;;;;;;;;3.00;1.67;;;;;22.66;100.00;102102.81;5068659;27;60618;-71
2023/08/21 06:45:48;;;;;;;;;1.00;1.00;;;;;22.67;100.00;102097.38;5065711;28;68793;-73
2023/08/21 06:48:14;;;;;;;;;3.33;1.67;;;;;22.65;100.00;102104.63;5069158;28;45462;-72
2023/08/21 06:50:39;;;;;;;;;3.67;2.00;;;;;22.70;100.00;102118.88;5068110;28;61104;-71
2023/08/21 06:53:04;;;;;;;;;2.00;2.00;;;;;22.72;100.00;102118.84;5067433;28;45384;-72
2023/08/21 06:55:30;;;;;;;;;0.00;0.00;;;;;22.80;100.00;102118.69;5070885;28;45767;-73
2023/08/21 06:57:55;;;;;;;;;2.67;0.33;;;;;22.80;100.00;102111.53;5071470;28;65014;-72
2023/08/21 07:00:20;;;;;;;;;2.33;1.00;;;;;22.85;100.00;102117.69;5071406;28;57842;-72
2023/08/21 07:02:46;;;;;;;;;3.00;1.00;;;;;22.94;100.00;102112.16;5073039;28;45439;-73
2023/08/21 07:05:11;;;;;;;;;3.00;0.00;;;;;22.91;100.00;102114.91;5067538;28;45411;-71
2023/08/21 07:07:36;;;;;;;;;2.00;2.00;;;;;22.95;100.00;102108.53;5070681;28;62820;-72
2023/08/21 07:10:03;;;;;;;;;4.00;1.00;;;;;22.99;100.00;102107.56;5071598;28;45810;-75
2023/08/21 07:12:28;;;;;;;;;2.00;1.00;;;;;23.07;100.00;102112.81;5071510;28;45689;-75
2023/08/21 07:14:54;;;;;;;;;1.00;1.00;;;;;23.17;100.00;102108.09;5052409;28;45779;-76
2023/08/21 07:17:19;;;;;;;;;1.00;1.00;;;;;23.25;100.00;102109.72;5066450;28;45338;-75
2023/08/21 07:19:44;;;;;;;;;2.33;1.00;;;;;23.30;100.00;102098.84;5066997;28;45400;-74
2023/08/21 07:22:10;;;;;;;;;3.00;1.00;;;;;23.40;100.00;102111.19;5063138;28;45419;-75
2023/08/21 07:24:35;;;;;;;;;1.00;1.00;;;;;23.49;100.00;102102.91;5063987;28;70068;-75
2023/08/21 07:27:00;;;;;;;;;5.67;1.67;;;;;23.56;100.00;102108.16;5051144;28;62492;-73
2023/08/21 07:29:26;;;;;;;;;4.67;1.00;;;;;23.63;100.00;102104.44;5061839;28;64724;-75
2023/08/21 07:31:51;;;;;;;;;0.67;0.00;;;;;23.75;100.00;102109.53;5063871;28;58905;-74
2023/08/21 07:34:16;;;;;;;;;1.67;1.00;;;;;23.86;100.00;102112.84;5048171;28;46050;-75
2023/08/21 07:36:42;;;;;;;;;1.00;1.00;;;;;23.92;100.00;102120.81;5074414;28;45437;-74
2023/08/21 07:39:07;;;;;;;;;1.67;0.00;;;;;24.02;100.00;102134.94;5074542;28;58926;-76
2023/08/21 07:41:33;;;;;;;;;0.00;0.00;;;;;24.08;100.00;102137.53;5073286;28;45489;-75
2023/08/21 07:43:59;;;;;;;;;2.00;0.00;;;;;24.15;100.00;102130.16;5176448;22;45764;-75
2023/08/21 07:46:24;;;;;;;;;0.00;0.00;;;;;24.19;100.00;102137.25;5073193;28;61797;-81
2023/08/21 07:48:49;;;;;;;;;1.67;0.00;;;;;24.19;100.00;102129.16;5054164;28;51814;-76
2023/08/21 07:51:15;;;;;;;;;1.67;0.00;;;;;24.23;100.00;102123.63;5074326;28;60557;-76
2023/08/21 07:53:40;;;;;;;;;1.00;1.00;;;;;24.28;100.00;102123.50;5054901;28;45508;-77
2023/08/21 07:56:06;;;;;;;;;2.33;0.33;;;;;24.35;100.00;102119.78;5055259;28;45881;-75
2023/08/21 07:58:31;;;;;;;;;0.00;0.00;;;;;24.43;100.00;102123.16;5059256;28;45661;-76
2023/08/21 08:00:57;;;;;;;;;1.67;0.00;;;;;24.52;100.00;102119.34;5056122;28;45560;-75
2023/08/21 08:03:22;;;;;;;;;0.33;0.33;;;;;24.55;100.00;102117.44;5074249;28;45614;-77
2023/08/21 08:05:48;;;;;;;;;3.00;0.00;;;;;24.59;100.00;102115.53;5075129;28;45414;-75
2023/08/21 08:08:13;;;;;;;;;0.00;0.00;;;;;24.67;100.00;102118.03;5075811;28;51088;-76
2023/08/21 08:10:39;;;;;;;;;0.00;0.00;;;;;24.70;100.00;102126.03;5079314;28;45285;-75
2023/08/21 08:13:05;;;;;;;;;0.00;0.00;;;;;24.74;100.00;102127.75;5079937;28;46616;-75
2023/08/21 08:15:31;;;;;;;;;1.67;1.00;;;;;24.79;100.00;102129.38;5078666;28;45390;-76
2023/08/21 08:17:57;;;;;;;;;1.33;0.00;;;;;24.84;100.00;102121.16;5077305;28;45526;-75
2023/08/21 08:20:23;;;;;;;;;0.00;0.00;;;;;24.88;100.00;102127.38;5075809;28;45280;-75
2023/08/21 08:22:48;;;;;;;;;2.00;0.00;;;;;24.91;100.00;102116.47;5069787;28;46319;-76
2023/08/21 08:25:13;;;;;;;;;0.00;0.00;;;;;24.96;100.00;102115.41;5058062;28;45410;-77
2023/08/21 08:27:39;;;;;;;;;0.33;0.00;;;;;25.07;100.00;102117.81;5076649;28;65968;-75
2023/08/21 08:30:05;;;;;;;;;0.00;0.00;;;;;25.12;100.00;102123.09;5077294;28;45639;-75
2023/08/21 08:32:30;;;;;;;;;3.00;0.00;;;;;25.20;100.00;102124.66;5042378;28;48055;-75
2023/08/21 08:34:56;;;;;;;;;0.00;0.00;;;;;25.25;100.00;102122.72;5076669;28;67042;-75
2023/08/21 08:37:21;;;;;;;;;1.67;0.00;;;;;25.32;100.00;102112.59;5075228;28;61882;-77
2023/08/21 08:39:47;;;;;;;;;1.33;0.00;;;;;25.33;100.00;102107.13;5073152;28;55688;-77
2023/08/21 08:42:13;;;;;;;;;0.33;0.00;;;;;25.39;100.00;102108.75;5038774;28;48489;-79
2023/08/21 08:44:40;;;;;;;;;2.00;0.33;;;;;25.46;100.00;102107.66;5076842;28;45565;-77
2023/08/21 08:47:06;;;;;;;;;0.00;0.00;;;;;25.48;100.00;102105.78;5055908;28;45593;-77
2023/08/21 08:49:32;;;;;;;;;0.00;0.00;;;;;25.53;100.00;102097.53;5057442;28;45229;-77
2023/08/21 08:51:58;;;;;;;;;0.00;0.00;;;;;25.60;100.00;102099.09;5075796;28;46444;-77
2023/08/21 08:54:25;;;;;;;;;0.33;0.33;;;;;25.74;100.00;102104.09;5053595;28;46891;-77
2023/08/21 08:56:50;;;;;;;;;0.00;0.00;;;;;25.88;100.00;102099.13;5071022;28;47294;-76
2023/08/21 08:59:15;;;;;;;;;0.00;0.00;;;;;25.98;100.00;102106.00;5075780;28;45897;-76
2023/08/21 09:01:41;;;;;;;;;0.00;0.00;;;;;26.03;100.00;102105.84;5050735;28;70792;-77
2023/08/21 09:04:07;;;;;;;;;0.00;0.00;;;;;26.03;100.00;102103.16;5071857;28;45409;-77
2023/08/21 09:06:33;;;;;;;;;2.00;0.00;;;;;26.06;100.00;102100.34;5048721;28;45312;-77
2023/08/21 09:08:59;;;;;;;;;3.00;0.00;;;;;26.09;100.00;102106.53;5058276;28;45495;-77
2023/08/21 09:11:24;;;;;;;;;2.00;0.00;;;;;26.16;100.00;102101.81;5069591;28;56391;-78
2023/08/21 09:13:50;;;;;;;;;2.00;0.00;;;;;26.21;100.00;102098.97;5057650;28;45370;-77
2023/08/21 09:16:20;;;;;;;;;0.00;0.00;;;;;26.23;100.00;102097.94;5050507;28;45437;-77
2023/08/21 09:18:49;;;;;;;;;0.00;0.00;;;;;26.33;100.00;102093.13;5056890;28;45531;-77
2023/08/21 09:21:21;;;;;;;;;0.00;0.00;;;;;26.46;100.00;102094.47;5054513;28;46026;-76
2023/08/21 09:23:48;;;;;;;;;0.67;0.00;;;;;26.62;100.00;102084.84;5053965;28;45486;-76
2023/08/21 09:26:20;;;;;;;;;3.00;1.00;;;;;26.68;100.00;102093.69;5075972;28;45517;-77
2023/08/21 09:28:46;;;;;;;;;2.67;1.00;;;;;26.72;100.00;102092.66;5075347;28;45347;-76
2023/08/21 09:31:11;;;;;;;;;0.00;0.00;;;;;26.78;100.00;102085.19;5075886;28;45748;-77
2023/08/21 09:33:37;;;;;;;;;2.67;1.00;;;;;26.80;100.00;102077.03;5073757;28;69429;-77
2023/08/21 09:36:04;;;;;;;;;2.00;1.00;;;;;26.83;100.00;102087.72;5075668;28;59978;-78
2023/08/21 09:38:30;;;;;;;;;5.00;1.00;;;;;26.85;100.00;102077.72;5075161;28;45446;-77
2023/08/21 09:40:56;;;;;;;;;2.00;0.33;;;;;26.88;100.00;102080.31;5052736;28;45615;-77
2023/08/21 09:43:23;;;;;;;;;0.33;0.33;;;;;26.93;100.00;102083.72;5072117;28;45258;-76
2023/08/21 09:45:55;;;;;;;;;5.00;2.00;;;;;27.12;100.00;102081.25;5053943;28;45664;-77
2023/08/21 09:48:26;;;;;;;;;2.67;0.00;;;;;27.21;100.00;102080.88;5074425;28;45296;-76
2023/08/21 09:50:52;;;;;;;;;1.00;1.00;;;;;27.32;100.00;102080.47;5074470;28;47663;-76
2023/08/21 09:53:17;;;;;;;;;0.00;0.00;;;;;27.41;100.00;102072.84;5075307;28;45276;-77
2023/08/21 09:55:43;;;;;;;;;0.67;0.67;;;;;27.45;100.00;102070.91;5069492;28;45308;-79
2023/08/21 09:58:09;;;;;;;;;2.00;0.67;;;;;27.62;100.00;102068.41;5055869;28;62926;-77
2023/08/21 10:00:37;;;;;;;;;2.00;0.67;;;;;27.51;100.00;102064.34;5069094;28;45592;-78
2023/08/21 10:03:04;;;;;;;;;0.00;0.00;;;;;27.45;100.00;102073.63;5069562;28;45423;-76
2023/08/21 10:05:31;;;;;;;;;1.00;1.00;;;;;27.41;100.00;102072.84;5053267;28;45341;-77
2023/08/21 10:08:00;;;;;;;;;1.00;1.00;;;;;27.41;100.00;102064.72;5050406;28;45248;-76
2023/08/21 10:10:26;;;;;;;;;2.00;1.00;;;;;27.44;100.00;102079.13;5071981;28;45784;-76
2023/08/21 10:12:51;;;;;;;;;1.33;0.00;;;;;27.47;100.00;102069.00;5070122;27;68521;-79
2023/08/21 10:15:16;;;;;;;;;1.67;0.33;;;;;27.49;100.00;102068.97;5041191;28;45524;-77
2023/08/21 10:17:43;;;;;;;;;1.67;1.00;;;;;27.48;100.00;102070.78;5055356;28;48911;-78
2023/08/21 10:20:11;;;;;;;;;1.00;1.00;;;;;27.53;100.00;102063.34;5075757;28;46842;-77
2023/08/21 10:22:45;;;;;;;;;0.33;0.00;;;;;27.59;100.00;102068.53;5072127;28;45515;-76
2023/08/21 10:25:20;;;;;;;;;0.00;0.00;;;;;27.69;100.00;102056.34;5075618;28;45257;-78
2023/08/21 10:27:45;;;;;;;;;1.00;1.00;;;;;27.77;100.00;102061.50;5065957;28;45500;-76
2023/08/21 10:30:29;;;;;;;;;4.00;1.00;;;;;27.85;100.00;102048.47;5075699;28;46483;-76
2023/08/21 10:32:58;;;;;;;;;0.67;0.67;;;;;27.89;100.00;102049.25;5046709;28;45719;-77
2023/08/21 10:35:25;;;;;;;;;1.00;1.00;;;;;27.99;99.80;102047.03;5070370;28;45328;-77
2023/08/21 10:38:10;;;;;;;;;2.33;0.33;;;;;28.08;100.00;102049.34;5051916;27;45520;-78
2023/08/21 10:40:35;;;;;;;;;1.00;1.00;;;;;28.17;100.00;102043.50;5057817;28;46835;-77
2023/08/21 10:43:02;;;;;;;;;1.67;1.00;;;;;28.23;99.47;102053.22;5078722;27;46690;-77
2023/08/21 10:45:28;;;;;;;;;1.00;1.00;;;;;28.30;98.29;102033.88;5073911;27;45494;-79
2023/08/21 10:47:56;;;;;;;;;2.33;0.67;;;;;28.38;97.39;102041.72;5086838;27;45377;-77
2023/08/21 10:50:22;;;;;;;;;1.00;1.00;;;;;28.41;96.76;102036.16;5077707;27;46753;-77
2023/08/21 10:52:51;;;;;;;;;1.00;1.00;;;;;28.47;95.68;102030.44;5058072;28;45343;-78
2023/08/21 10:55:18;;;;;;;;;2.00;1.00;;;;;28.56;95.87;102019.16;5059407;28;45422;-77
2023/08/21 10:57:45;;;;;;;;;1.33;1.33;;;;;28.62;95.24;102028.88;5084232;27;45310;-81
2023/08/21 11:00:13;;;;;;;;;0.33;0.33;;;;;28.68;95.86;102024.03;5061369;28;46577;-77
2023/08/21 11:02:40;;;;;;;;;2.33;1.33;;;;;28.77;94.68;102020.00;5047275;27;45371;-76
2023/08/21 11:05:07;;;;;;;;;1.00;1.00;;;;;28.84;93.72;102018.75;5079335;27;45403;-78
2023/08/21 11:07:48;;;;;;;;;1.00;1.00;;;;;28.93;93.00;102017.47;5078844;27;45413;-76
2023/08/21 11:10:16;;;;;;;;;3.00;1.00;;;;;28.99;93.68;102011.75;5076742;27;47819;-77
2023/08/21 11:12:55;;;;;;;;;1.00;1.00;;;;;29.07;93.38;102014.09;5076714;27;45518;-78